Time;durP1;ratioP1;P1;durP2;ratioP2;P2;SDS_P1;SDS_P2;PMS_P1;PMS_P2;Temp;Humidity;BMP_temperature;BMP_pressure;BME280_temperature;BME280_humidity;BME280_pressure;Samples;Min_cycle;Max_cycle;Signal;HPM_P1;HPM_P2
2023/05/20 00:00:48;;;;;;;37.92;16.33;;;;;;;;;;6213218;23;20004;-80
2023/05/20 00:03:15;;;;;;;42.22;18.08;;;;;;;;;;6212931;23;20072;-80
2023/05/20 00:05:40;;;;;;;39.45;17.55;;;;;;;;;;6214645;23;20001;-80
2023/05/20 00:08:08;;;;;;;41.85;16.73;;;;;;;;;;6215127;23;20005;-80
2023/05/20 00:10:34;;;;;;;40.13;16.88;;;;;;;;;;6213284;23;20000;-81
2023/05/20 00:12:59;;;;;;;40.30;15.85;;;;;;;;;;6213405;23;20008;-81
2023/05/20 00:15:25;;;;;;;45.17;17.02;;;;;;;;;;6188142;23;20494;-81
2023/05/20 00:17:50;;;;;;;46.10;17.42;;;;;;;;;;6213308;23;20087;-81
2023/05/20 00:20:16;;;;;;;38.35;17.45;;;;;;;;;;6212825;23;20005;-80
2023/05/20 00:22:41;;;;;;;39.25;18.50;;;;;;;;;;6214436;23;20001;-80
2023/05/20 00:25:07;;;;;;;40.97;17.85;;;;;;;;;;6214141;23;20070;-80
2023/05/20 00:27:32;;;;;;;42.28;18.60;;;;;;;;;;6214481;23;20032;-81
2023/05/20 00:29:58;;;;;;;43.45;17.50;;;;;;;;;;6213088;23;20053;-81
2023/05/20 00:32:23;;;;;;;38.75;17.20;;;;;;;;;;6214130;23;20005;-81
2023/05/20 00:34:58;;;;;;;44.75;18.88;;;;;;;;;;6215035;23;20006;-81
2023/05/20 00:37:24;;;;;;;40.80;18.13;;;;;;;;;;6188218;23;20004;-81
2023/05/20 00:39:50;;;;;;;41.10;18.15;;;;;;;;;;6212454;23;20000;-80
2023/05/20 00:42:25;;;;;;;47.42;19.50;;;;;;;;;;6212840;23;20004;-80
2023/05/20 00:44:51;;;;;;;43.88;18.65;;;;;;;;;;6187746;23;20001;-81
2023/05/20 00:47:17;;;;;;;41.72;18.55;;;;;;;;;;6213094;23;20091;-81
2023/05/20 00:49:46;;;;;;;45.15;17.90;;;;;;;;;;6214318;23;20027;-81
2023/05/20 00:52:11;;;;;;;46.42;18.55;;;;;;;;;;6187955;23;20012;-81
2023/05/20 00:54:37;;;;;;;44.30;18.75;;;;;;;;;;6187380;23;20001;-81
2023/05/20 00:57:04;;;;;;;43.05;18.38;;;;;;;;;;6214033;23;20023;-81
2023/05/20 00:59:29;;;;;;;43.13;19.33;;;;;;;;;;6163022;23;20007;-81
2023/05/20 01:01:55;;;;;;;46.08;19.67;;;;;;;;;;6212137;23;20016;-80
2023/05/20 01:04:20;;;;;;;42.58;20.25;;;;;;;;;;6188126;23;20335;-80
2023/05/20 01:06:46;;;;;;;47.50;19.83;;;;;;;;;;6212956;23;20411;-81
2023/05/20 01:09:12;;;;;;;48.33;20.13;;;;;;;;;;6213822;23;20088;-81
2023/05/20 01:11:41;;;;;;;45.03;20.10;;;;;;;;;;6187783;23;20032;-81
2023/05/20 01:14:07;;;;;;;48.00;21.00;;;;;;;;;;6188292;23;20004;-81
2023/05/20 01:16:32;;;;;;;48.20;19.70;;;;;;;;;;6212511;23;20355;-81
2023/05/20 01:18:58;;;;;;;46.47;21.25;;;;;;;;;;6187484;23;20398;-80
2023/05/20 01:21:23;;;;;;;50.05;21.23;;;;;;;;;;6187407;23;20023;-80
2023/05/20 01:23:49;;;;;;;60.45;21.20;;;;;;;;;;6212259;23;20096;-80
2023/05/20 01:26:15;;;;;;;54.20;22.10;;;;;;;;;;6212433;23;20054;-81
2023/05/20 01:28:42;;;;;;;48.22;21.27;;;;;;;;;;6213875;23;20510;-80
2023/05/20 01:31:11;;;;;;;49.97;20.98;;;;;;;;;;6187880;23;20430;-81
2023/05/20 01:33:36;;;;;;;58.90;22.92;;;;;;;;;;6163232;23;20005;-81
2023/05/20 01:36:02;;;;;;;56.00;22.42;;;;;;;;;;6162515;23;20005;-81
2023/05/20 01:38:27;;;;;;;53.58;20.98;;;;;;;;;;6162553;23;20000;-81
2023/05/20 01:40:53;;;;;;;53.83;22.13;;;;;;;;;;6162659;23;20004;-80
2023/05/20 01:43:18;;;;;;;64.18;21.75;;;;;;;;;;6187469;23;20058;-81
2023/05/20 01:45:44;;;;;;;51.13;21.48;;;;;;;;;;6187187;23;20005;-81
2023/05/20 01:48:10;;;;;;;53.13;22.20;;;;;;;;;;6212624;23;20433;-82
2023/05/20 01:50:36;;;;;;;57.40;21.88;;;;;;;;;;6212275;23;20036;-78
2023/05/20 01:53:01;;;;;;;53.80;21.25;;;;;;;;;;6186691;23;20005;-79
2023/05/20 01:55:27;;;;;;;50.15;21.52;;;;;;;;;;6213621;23;20036;-78
2023/05/20 01:57:52;;;;;;;51.45;22.67;;;;;;;;;;6213563;23;20079;-79
2023/05/20 02:00:18;;;;;;;53.65;21.02;;;;;;;;;;6212338;23;20008;-80
2023/05/20 02:02:43;;;;;;;47.13;20.67;;;;;;;;;;6212009;23;20070;-79
2023/05/20 02:05:09;;;;;;;53.83;20.85;;;;;;;;;;6212067;23;20005;-79
2023/05/20 02:07:34;;;;;;;55.25;21.30;;;;;;;;;;6212163;23;20119;-80
2023/05/20 02:10:00;;;;;;;60.33;21.88;;;;;;;;;;6213432;23;20462;-80
2023/05/20 02:12:25;;;;;;;43.08;19.77;;;;;;;;;;6213290;23;20347;-80
2023/05/20 02:14:51;;;;;;;45.42;19.70;;;;;;;;;;6213081;23;20403;-80
2023/05/20 02:17:16;;;;;;;54.95;22.45;;;;;;;;;;6212062;23;20430;-80
2023/05/20 02:19:42;;;;;;;47.65;20.45;;;;;;;;;;6187533;23;20139;-80
2023/05/20 02:22:08;;;;;;;48.72;21.05;;;;;;;;;;6212019;23;20005;-79
2023/05/20 02:24:33;;;;;;;49.65;21.52;;;;;;;;;;6186865;23;20012;-80
2023/05/20 02:26:59;;;;;;;50.90;22.00;;;;;;;;;;6212012;23;20001;-80
2023/05/20 02:29:24;;;;;;;52.10;22.60;;;;;;;;;;6211957;23;20008;-80
2023/05/20 02:31:50;;;;;;;52.55;21.58;;;;;;;;;;6211899;23;20032;-79
2023/05/20 02:34:19;;;;;;;54.25;22.75;;;;;;;;;;6213449;23;20001;-80
2023/05/20 02:36:44;;;;;;;51.13;22.42;;;;;;;;;;6186926;23;20008;-80
2023/05/20 02:39:10;;;;;;;53.50;21.45;;;;;;;;;;6213338;23;20005;-79
2023/05/20 02:41:35;;;;;;;50.30;21.92;;;;;;;;;;6213613;23;20429;-81
2023/05/20 02:44:01;;;;;;;59.72;22.92;;;;;;;;;;6161856;23;20020;-81
2023/05/20 02:46:26;;;;;;;60.17;22.65;;;;;;;;;;6162257;23;20005;-80
2023/05/20 02:48:52;;;;;;;57.08;23.27;;;;;;;;;;6211876;23;20424;-80
2023/05/20 02:51:17;;;;;;;53.13;22.50;;;;;;;;;;6212881;23;20001;-80
2023/05/20 02:53:42;;;;;;;56.42;22.90;;;;;;;;;;6212763;23;20011;-80
2023/05/20 02:56:08;;;;;;;56.15;22.58;;;;;;;;;;6211850;23;20008;-80
2023/05/20 02:58:36;;;;;;;58.60;22.33;;;;;;;;;;6213502;23;20016;-81
2023/05/20 03:01:02;;;;;;;57.67;23.42;;;;;;;;;;6213479;23;20127;-80
2023/05/20 03:03:27;;;;;;;62.28;25.33;;;;;;;;;;6186702;23;20012;-79
2023/05/20 03:05:53;;;;;;;61.88;25.33;;;;;;;;;;6186839;23;20000;-79
2023/05/20 03:08:19;;;;;;;66.97;25.73;;;;;;;;;;6213340;23;20432;-79
2023/05/20 03:10:45;;;;;;;61.42;25.10;;;;;;;;;;6186963;23;20004;-79
2023/05/20 03:13:10;;;;;;;62.88;25.92;;;;;;;;;;6162147;23;20032;-79
2023/05/20 03:15:37;;;;;;;63.72;28.98;;;;;;;;;;6213220;23;20412;-79
2023/05/20 03:18:02;;;;;;;61.78;28.55;;;;;;;;;;6162352;23;20091;-80
2023/05/20 03:20:28;;;;;;;67.75;26.85;;;;;;;;;;6211584;23;20000;-80
2023/05/20 03:22:54;;;;;;;67.40;27.65;;;;;;;;;;6161995;23;20430;-80
2023/05/20 03:25:21;;;;;;;67.53;25.70;;;;;;;;;;6187146;23;20012;-80
2023/05/20 03:27:46;;;;;;;67.72;25.60;;;;;;;;;;6163846;23;20009;-80
2023/05/20 03:30:12;;;;;;;63.92;25.70;;;;;;;;;;6188478;23;20007;-82
2023/05/20 03:32:38;;;;;;;62.55;25.40;;;;;;;;;;6214124;23;20092;-79
2023/05/20 03:35:05;;;;;;;60.75;23.80;;;;;;;;;;6213543;23;20000;-81
2023/05/20 03:37:30;;;;;;;57.17;22.80;;;;;;;;;;6188638;23;20016;-81
2023/05/20 03:39:56;;;;;;;49.10;20.40;;;;;;;;;;6215128;23;20000;-81
2023/05/20 03:42:21;;;;;;;48.42;20.63;;;;;;;;;;6214935;23;20028;-81
2023/05/20 03:44:47;;;;;;;53.67;21.75;;;;;;;;;;6214821;23;20043;-81
2023/05/20 03:47:12;;;;;;;53.83;21.15;;;;;;;;;;6213326;23;20096;-81
2023/05/20 03:49:39;;;;;;;49.65;20.95;;;;;;;;;;6213034;23;19996;-82
2023/05/20 03:52:05;;;;;;;51.17;20.73;;;;;;;;;;6215053;23;20019;-81
2023/05/20 03:54:31;;;;;;;46.05;19.33;;;;;;;;;;6214841;23;20000;-80
2023/05/20 03:56:56;;;;;;;47.67;19.73;;;;;;;;;;6213538;23;20055;-81
2023/05/20 03:59:22;;;;;;;52.03;20.35;;;;;;;;;;6213331;23;20055;-81
2023/05/20 04:01:47;;;;;;;47.88;19.95;;;;;;;;;;6188030;23;20009;-81
2023/05/20 04:04:13;;;;;;;48.80;20.33;;;;;;;;;;6188078;23;20009;-81
2023/05/20 04:06:39;;;;;;;46.83;19.55;;;;;;;;;;6213079;23;20005;-81
2023/05/20 04:09:04;;;;;;;54.20;21.45;;;;;;;;;;6213223;23;20080;-81
2023/05/20 04:11:30;;;;;;;48.13;20.75;;;;;;;;;;6214889;23;20015;-80
2023/05/20 04:13:57;;;;;;;49.00;20.77;;;;;;;;;;6214872;23;20001;-80
2023/05/20 04:16:22;;;;;;;54.08;21.02;;;;;;;;;;6188536;23;20009;-81
2023/05/20 04:18:48;;;;;;;54.08;20.70;;;;;;;;;;6187821;23;19997;-81
2023/05/20 04:21:13;;;;;;;50.28;21.85;;;;;;;;;;6213026;23;20012;-81
2023/05/20 04:23:39;;;;;;;49.15;21.40;;;;;;;;;;6214593;23;20009;-81
2023/05/20 04:26:04;;;;;;;51.78;20.40;;;;;;;;;;6187711;23;20004;-81
2023/05/20 04:28:30;;;;;;;48.35;21.25;;;;;;;;;;6214413;23;20005;-79
2023/05/20 04:30:59;;;;;;;51.17;21.08;;;;;;;;;;6188250;23;20083;-80
2023/05/20 04:33:26;;;;;;;43.92;19.50;;;;;;;;;;6214168;23;20008;-80
2023/05/20 04:35:51;;;;;;;60.80;21.85;;;;;;;;;;6213373;23;20347;-80
2023/05/20 04:38:17;;;;;;;50.25;20.38;;;;;;;;;;6214012;23;19997;-80
2023/05/20 04:40:42;;;;;;;45.05;20.52;;;;;;;;;;6212868;23;20000;-80
2023/05/20 04:43:08;;;;;;;49.60;19.15;;;;;;;;;;6214608;23;20001;-81
2023/05/20 04:45:34;;;;;;;45.42;19.88;;;;;;;;;;6214685;23;20024;-80
2023/05/20 04:48:00;;;;;;;44.85;19.02;;;;;;;;;;6187754;23;20011;-81
2023/05/20 04:50:25;;;;;;;48.25;19.45;;;;;;;;;;6212804;23;20075;-81
2023/05/20 04:52:51;;;;;;;46.03;18.65;;;;;;;;;;6212794;23;20356;-80
2023/05/20 04:55:17;;;;;;;43.75;18.30;;;;;;;;;;6163267;23;20336;-81
2023/05/20 04:57:42;;;;;;;44.85;18.30;;;;;;;;;;6187853;23;20005;-81
2023/05/20 05:00:09;;;;;;;42.67;18.35;;;;;;;;;;6212623;23;20457;-81
2023/05/20 05:02:35;;;;;;;52.33;19.98;;;;;;;;;;6162857;23;20031;-79
2023/05/20 05:05:00;;;;;;;44.78;18.98;;;;;;;;;;6163142;23;20012;-80
2023/05/20 05:07:26;;;;;;;37.60;18.38;;;;;;;;;;6214100;23;20076;-80
2023/05/20 05:09:51;;;;;;;52.40;20.30;;;;;;;;;;6212596;23;20000;-79
2023/05/20 05:12:16;;;;;;;46.28;20.35;;;;;;;;;;6212213;23;20059;-80
2023/05/20 05:14:42;;;;;;;39.47;19.02;;;;;;;;;;6187408;23;20069;-80
2023/05/20 05:17:07;;;;;;;42.05;18.45;;;;;;;;;;6213692;23;20079;-80
2023/05/20 05:19:33;;;;;;;46.13;19.30;;;;;;;;;;6187723;23;20012;-81
2023/05/20 05:21:58;;;;;;;44.17;19.13;;;;;;;;;;6212574;23;20008;-81
2023/05/20 05:24:23;;;;;;;38.78;18.08;;;;;;;;;;6187545;23;20075;-81
2023/05/20 05:26:53;;;;;;;42.55;19.45;;;;;;;;;;6212481;23;19996;-81
2023/05/20 05:29:19;;;;;;;43.95;18.85;;;;;;;;;;6212343;23;20086;-79
2023/05/20 05:31:44;;;;;;;40.83;18.98;;;;;;;;;;6212040;23;20005;-79
2023/05/20 05:34:09;;;;;;;43.55;18.40;;;;;;;;;;6187322;23;20394;-80
2023/05/20 05:36:37;;;;;;;48.80;19.65;;;;;;;;;;6212374;23;20420;-80
2023/05/20 05:39:03;;;;;;;35.80;17.42;;;;;;;;;;6187926;23;20028;-80
2023/05/20 05:41:28;;;;;;;32.63;16.52;;;;;;;;;;6212152;23;20419;-80
2023/05/20 05:43:54;;;;;;;35.42;16.55;;;;;;;;;;6187190;23;20023;-81
2023/05/20 05:46:19;;;;;;;33.13;16.25;;;;;;;;;;6187203;23;20005;-80
2023/05/20 05:48:47;;;;;;;29.80;15.80;;;;;;;;;;6187575;23;20032;-80
2023/05/20 05:51:13;;;;;;;31.92;16.40;;;;;;;;;;6213791;23;20001;-80
2023/05/20 05:53:39;;;;;;;30.70;15.32;;;;;;;;;;6212722;23;20011;-81
2023/05/20 05:56:05;;;;;;;25.42;14.93;;;;;;;;;;6212198;23;20325;-80
2023/05/20 05:58:30;;;;;;;31.70;15.30;;;;;;;;;;6211985;23;20009;-80
2023/05/20 06:00:56;;;;;;;21.83;13.15;;;;;;;;;;6187201;23;20072;-80
2023/05/20 06:03:21;;;;;;;23.85;14.05;;;;;;;;;;6212014;23;20023;-79
2023/05/20 06:05:47;;;;;;;24.45;13.73;;;;;;;;;;6213914;23;20003;-80
2023/05/20 06:08:12;;;;;;;22.88;13.13;;;;;;;;;;6187153;23;20407;-79
2023/05/20 06:10:38;;;;;;;27.33;13.93;;;;;;;;;;6212248;23;20019;-80
2023/05/20 06:13:03;;;;;;;22.55;12.93;;;;;;;;;;6213412;23;20435;-81
2023/05/20 06:15:28;;;;;;;24.60;13.40;;;;;;;;;;6214242;23;20455;-82
2023/05/20 06:17:54;;;;;;;32.42;14.98;;;;;;;;;;6213366;23;20011;-78
2023/05/20 06:20:19;;;;;;;26.38;15.05;;;;;;;;;;6211880;23;20001;-80
2023/05/20 06:22:45;;;;;;;27.17;15.00;;;;;;;;;;6211808;23;20458;-82
2023/05/20 06:25:11;;;;;;;30.27;15.48;;;;;;;;;;6213464;23;20008;-80
2023/05/20 06:27:36;;;;;;;22.67;14.38;;;;;;;;;;6213152;23;20051;-78
2023/05/20 06:30:02;;;;;;;22.27;13.18;;;;;;;;;;6186941;23;20009;-79
2023/05/20 06:32:27;;;;;;;24.17;14.07;;;;;;;;;;6211817;23;20004;-80
2023/05/20 06:34:53;;;;;;;20.65;13.13;;;;;;;;;;6187188;23;20008;-79
2023/05/20 06:37:19;;;;;;;21.10;11.93;;;;;;;;;;6213240;23;19996;-79
2023/05/20 06:39:46;;;;;;;23.83;13.45;;;;;;;;;;6212014;23;20554;-79
2023/05/20 06:42:11;;;;;;;22.77;12.88;;;;;;;;;;6211468;23;20352;-79
2023/05/20 06:44:37;;;;;;;22.63;13.00;;;;;;;;;;6161980;23;20076;-80
2023/05/20 06:47:02;;;;;;;20.80;13.27;;;;;;;;;;6211859;23;20387;-78
2023/05/20 06:49:28;;;;;;;21.63;12.38;;;;;;;;;;6162453;23;20378;-81
2023/05/20 06:51:53;;;;;;;20.77;12.80;;;;;;;;;;6161832;23;20008;-80
2023/05/20 06:54:19;;;;;;;21.77;11.68;;;;;;;;;;6186805;23;20332;-80
2023/05/20 06:56:44;;;;;;;21.58;12.32;;;;;;;;;;6186650;23;20008;-81
2023/05/20 06:59:10;;;;;;;18.15;11.23;;;;;;;;;;6211835;23;20008;-81
2023/05/20 07:01:35;;;;;;;17.38;11.23;;;;;;;;;;6214941;23;20063;-79
2023/05/20 07:04:01;;;;;;;19.58;11.70;;;;;;;;;;6215483;23;20019;-80
2023/05/20 07:06:26;;;;;;;17.95;11.02;;;;;;;;;;6215328;23;20376;-80
2023/05/20 07:08:51;;;;;;;16.58;10.75;;;;;;;;;;6215338;23;20087;-80
2023/05/20 07:11:17;;;;;;;22.95;10.40;;;;;;;;;;6213323;23;20315;-80
2023/05/20 07:13:42;;;;;;;17.60;10.45;;;;;;;;;;6213580;23;20028;-81
2023/05/20 07:16:08;;;;;;;16.10;9.75;;;;;;;;;;6188252;23;20001;-83
2023/05/20 07:18:33;;;;;;;17.73;10.27;;;;;;;;;;6213360;23;20005;-79
2023/05/20 07:20:58;;;;;;;15.90;10.45;;;;;;;;;;6163673;23;20005;-80
2023/05/20 07:23:24;;;;;;;16.70;10.70;;;;;;;;;;6214541;23;20004;-81
2023/05/20 07:25:50;;;;;;;19.02;10.63;;;;;;;;;;6188077;23;20083;-79
2023/05/20 07:28:16;;;;;;;17.17;9.57;;;;;;;;;;6213518;23;20009;-80
2023/05/20 07:30:45;;;;;;;15.90;9.65;;;;;;;;;;6188347;23;20428;-79
2023/05/20 07:33:10;;;;;;;;;;;;;;;;;;6189722;23;20377;-80
2023/05/20 07:35:36;;;;;;;16.60;8.90;;;;;;;;;;6213413;23;19939;-79
2023/05/20 07:38:01;;;;;;;10.70;7.30;;;;;;;;;;6163362;23;20079;-78
2023/05/20 07:40:26;;;;;;;12.90;8.48;;;;;;;;;;6213348;23;20335;-79
2023/05/20 07:42:52;;;;;;;10.52;7.75;;;;;;;;;;6214831;23;20084;-80
2023/05/20 07:45:17;;;;;;;11.25;7.93;;;;;;;;;;6213327;23;20001;-80
2023/05/20 07:47:43;;;;;;;10.43;7.88;;;;;;;;;;6188432;23;20039;-80
2023/05/20 07:50:08;;;;;;;14.57;8.63;;;;;;;;;;6214651;23;20004;-81
2023/05/20 07:52:34;;;;;;;13.52;8.93;;;;;;;;;;6213174;23;20483;-81
2023/05/20 07:54:59;;;;;;;12.68;8.75;;;;;;;;;;6214344;23;20011;-81
2023/05/20 07:57:25;;;;;;;16.13;9.00;;;;;;;;;;6188213;23;20012;-80
2023/05/20 07:59:50;;;;;;;14.43;9.48;;;;;;;;;;6213275;23;20000;-80
2023/05/20 08:02:16;;;;;;;14.88;10.38;;;;;;;;;;6213080;23;20005;-80
2023/05/20 08:04:42;;;;;;;15.13;10.00;;;;;;;;;;6213440;23;20339;-80
2023/05/20 08:07:07;;;;;;;13.05;8.70;;;;;;;;;;6188258;23;20024;-81
2023/05/20 08:09:33;;;;;;;19.25;10.13;;;;;;;;;;6212790;23;20004;-82
2023/05/20 08:11:58;;;;;;;14.43;10.45;;;;;;;;;;6212699;23;20008;-79
2023/05/20 08:14:24;;;;;;;19.65;11.88;;;;;;;;;;6213209;23;20008;-78
2023/05/20 08:16:49;;;;;;;16.55;11.35;;;;;;;;;;6212927;23;20000;-80
2023/05/20 08:19:15;;;;;;;15.82;10.55;;;;;;;;;;6213104;23;20390;-80
2023/05/20 08:21:41;;;;;;;16.77;10.95;;;;;;;;;;6212903;23;20356;-81
2023/05/20 08:24:06;;;;;;;20.55;10.90;;;;;;;;;;6188233;23;20083;-80
2023/05/20 08:26:32;;;;;;;15.98;10.07;;;;;;;;;;6163239;23;20024;-81
2023/05/20 08:28:57;;;;;;;14.65;10.75;;;;;;;;;;6187842;23;20009;-79
2023/05/20 08:31:23;;;;;;;16.80;10.75;;;;;;;;;;6187754;23;20007;-80
2023/05/20 08:33:48;;;;;;;17.90;11.38;;;;;;;;;;6187788;23;20000;-81
2023/05/20 08:36:14;;;;;;;18.00;11.07;;;;;;;;;;6213001;23;20001;-80
2023/05/20 08:38:39;;;;;;;17.33;10.50;;;;;;;;;;6187466;23;20011;-79
2023/05/20 08:41:05;;;;;;;16.02;10.73;;;;;;;;;;6214137;23;20008;-79
2023/05/20 08:43:31;;;;;;;14.98;9.75;;;;;;;;;;6214389;23;20058;-81
2023/05/20 08:45:56;;;;;;;14.38;9.65;;;;;;;;;;6214326;23;20011;-80
2023/05/20 08:48:23;;;;;;;14.63;9.98;;;;;;;;;;6214130;23;20343;-81
2023/05/20 08:50:52;;;;;;;13.65;9.45;;;;;;;;;;6212730;23;20005;-81
2023/05/20 08:53:17;;;;;;;14.02;8.90;;;;;;;;;;6162949;23;20000;-78
2023/05/20 08:55:51;;;;;;;15.60;9.63;;;;;;;;;;6163140;23;20000;-78
2023/05/20 08:58:18;;;;;;;15.00;9.23;;;;;;;;;;6212775;23;20016;-79
2023/05/20 09:00:44;;;;;;;13.45;8.80;;;;;;;;;;6212747;23;20004;-79
2023/05/20 09:03:10;;;;;;;16.27;9.27;;;;;;;;;;6212678;23;20008;-81
2023/05/20 09:05:35;;;;;;;16.42;9.57;;;;;;;;;;6212637;23;20015;-80
2023/05/20 09:08:07;;;;;;;13.45;9.32;;;;;;;;;;6162725;23;20004;-80
2023/05/20 09:10:33;;;;;;;14.57;9.07;;;;;;;;;;6214670;23;20001;-79
2023/05/20 09:13:06;;;;;;;13.65;8.95;;;;;;;;;;6162449;23;20004;-79
2023/05/20 09:15:32;;;;;;;15.25;9.20;;;;;;;;;;6163881;23;20015;-79
2023/05/20 09:18:06;;;;;;;14.35;9.52;;;;;;;;;;6212449;23;19996;-79
2023/05/20 09:20:33;;;;;;;15.25;9.38;;;;;;;;;;6213900;23;20044;-79
2023/05/20 09:23:02;;;;;;;17.48;9.85;;;;;;;;;;6187041;23;20286;-79
2023/05/20 09:25:28;;;;;;;15.45;9.13;;;;;;;;;;6213277;23;20352;-81
2023/05/20 09:27:53;;;;;;;15.00;8.68;;;;;;;;;;6162799;23;20007;-79
2023/05/20 09:30:19;;;;;;;12.48;8.40;;;;;;;;;;6187328;23;20011;-79
2023/05/20 09:32:51;;;;;;;14.52;8.88;;;;;;;;;;6212465;23;20087;-79
2023/05/20 09:35:16;;;;;;;11.82;8.85;;;;;;;;;;6188587;23;20012;-80
2023/05/20 09:37:43;;;;;;;11.52;8.50;;;;;;;;;;6186937;23;20001;-79
2023/05/20 09:40:09;;;;;;;14.55;7.93;;;;;;;;;;6187810;23;20024;-79
2023/05/20 09:42:42;;;;;;;15.25;8.60;;;;;;;;;;6212296;23;20078;-80
2023/05/20 09:45:08;;;;;;;15.10;8.77;;;;;;;;;;6187504;23;20444;-79
2023/05/20 09:47:37;;;;;;;13.98;8.45;;;;;;;;;;6213993;23;20007;-80
2023/05/20 09:50:04;;;;;;;11.90;7.88;;;;;;;;;;6212504;23;20428;-79
2023/05/20 09:52:30;;;;;;;13.65;8.48;;;;;;;;;;6211456;23;20011;-79
2023/05/20 09:54:56;;;;;;;14.18;8.15;;;;;;;;;;6213946;23;20000;-78
2023/05/20 09:57:21;;;;;;;11.60;8.77;;;;;;;;;;6162756;23;20004;-79
2023/05/20 09:59:46;;;;;;;14.27;8.65;;;;;;;;;;6187073;23;20005;-80
2023/05/20 10:02:12;;;;;;;11.82;8.10;;;;;;;;;;6187117;23;20008;-82
2023/05/20 10:04:42;;;;;;;12.63;8.10;;;;;;;;;;6212152;23;20001;-78
2023/05/20 10:07:25;;;;;;;13.45;8.77;;;;;;;;;;6187141;23;20000;-79
2023/05/20 10:10:36;;;;;;;12.20;8.02;;;;;;;;;;6212146;23;20071;-79
2023/05/20 10:13:58;;;;;;;14.15;8.63;;;;;;;;;;6167349;23;20004;-79
2023/05/20 10:16:39;;;;;;;13.98;8.70;;;;;;;;;;6068584;23;20010;-79
2023/05/20 10:19:29;;;;;;;13.15;8.93;;;;;;;;;;6092601;23;20337;-81
2023/05/20 10:22:05;;;;;;;15.63;8.75;;;;;;;;;;6167258;23;20012;-81
2023/05/20 10:24:36;;;;;;;15.40;8.40;;;;;;;;;;6163273;23;20083;-80
2023/05/20 10:27:03;;;;;;;13.35;8.10;;;;;;;;;;6211797;23;20024;-80
2023/05/20 10:29:28;;;;;;;13.30;8.77;;;;;;;;;;6212164;23;20066;-81
2023/05/20 10:31:54;;;;;;;12.80;8.57;;;;;;;;;;6212139;23;20425;-80
2023/05/20 10:34:21;;;;;;;14.73;8.52;;;;;;;;;;6162233;23;20005;-79
2023/05/20 10:36:53;;;;;;;13.23;8.70;;;;;;;;;;6189088;23;20067;-79
2023/05/20 10:39:18;;;;;;;14.55;9.07;;;;;;;;;;6215531;23;20009;-81
2023/05/20 10:41:44;;;;;;;13.63;8.50;;;;;;;;;;6214201;23;20059;-81
2023/05/20 10:44:09;;;;;;;14.07;8.80;;;;;;;;;;6189039;23;20004;-80
2023/05/20 10:46:35;;;;;;;12.90;9.57;;;;;;;;;;6215306;23;20008;-80
2023/05/20 10:49:01;;;;;;;17.95;9.60;;;;;;;;;;6163883;23;20359;-81
2023/05/20 10:51:27;;;;;;;13.60;8.93;;;;;;;;;;6188743;23;20012;-79
2023/05/20 10:53:56;;;;;;;15.35;9.27;;;;;;;;;;6164180;23;20332;-79
2023/05/20 10:56:23;;;;;;;13.18;9.38;;;;;;;;;;6190263;23;20134;-79
2023/05/20 10:58:53;;;;;;;17.65;9.25;;;;;;;;;;6214097;23;20008;-80
2023/05/20 11:01:24;;;;;;;13.80;8.98;;;;;;;;;;6189902;23;20028;-80
2023/05/20 11:03:49;;;;;;;17.38;10.20;;;;;;;;;;6213168;23;20482;-79
2023/05/20 11:06:17;;;;;;;17.35;9.95;;;;;;;;;;6188665;23;20005;-80
2023/05/20 11:08:42;;;;;;;14.13;9.77;;;;;;;;;;6213729;23;20000;-80
2023/05/20 11:11:09;;;;;;;15.23;9.70;;;;;;;;;;6188597;23;20092;-79
2023/05/20 11:13:34;;;;;;;13.23;9.45;;;;;;;;;;6213822;23;20012;-78
2023/05/20 11:16:00;;;;;;;17.13;9.27;;;;;;;;;;6213705;23;20005;-79
2023/05/20 11:18:29;;;;;;;16.50;10.32;;;;;;;;;;6214506;23;20479;-79
2023/05/20 11:20:57;;;;;;;16.52;9.82;;;;;;;;;;6213614;23;20005;-79
2023/05/20 11:23:22;;;;;;;15.82;9.13;;;;;;;;;;6213424;23;20054;-79
2023/05/20 11:25:51;;;;;;;15.68;9.35;;;;;;;;;;6213460;23;20071;-80
2023/05/20 11:28:18;;;;;;;18.40;9.80;;;;;;;;;;6213443;23;20011;-79
2023/05/20 11:30:43;;;;;;;15.88;9.77;;;;;;;;;;6188491;23;20004;-78
2023/05/20 11:33:11;;;;;;;13.63;9.50;;;;;;;;;;6187821;23;20087;-78
2023/05/20 11:35:37;;;;;;;13.15;8.93;;;;;;;;;;6213485;23;20396;-79
2023/05/20 11:38:05;;;;;;;16.92;9.82;;;;;;;;;;6188466;23;20032;-78
2023/05/20 11:40:31;;;;;;;17.38;9.45;;;;;;;;;;6188548;23;20012;-79
2023/05/20 11:42:57;;;;;;;17.75;8.63;;;;;;;;;;6163667;23;20096;-79
2023/05/20 11:45:23;;;;;;;15.95;9.73;;;;;;;;;;6213110;23;20012;-80
2023/05/20 11:48:04;;;;;;;14.02;9.02;;;;;;;;;;6188265;23;20004;-78
2023/05/20 11:50:43;;;;;;;13.02;8.77;;;;;;;;;;6213117;23;20005;-79
2023/05/20 11:53:19;;;;;;;15.05;8.82;;;;;;;;;;6189660;23;20035;-80
2023/05/20 11:55:55;;;;;;;29.88;8.95;;;;;;;;;;6213399;23;20011;-81
2023/05/20 11:58:25;;;;;;;12.55;8.45;;;;;;;;;;6187157;23;20011;-80
2023/05/20 12:00:50;;;;;;;13.63;9.15;;;;;;;;;;6188862;23;20482;-80
2023/05/20 12:03:16;;;;;;;14.73;8.48;;;;;;;;;;6187572;23;20012;-80
2023/05/20 12:05:42;;;;;;;15.93;9.65;;;;;;;;;;6213138;23;20368;-80
2023/05/20 12:08:07;;;;;;;13.65;9.23;;;;;;;;;;6213030;23;20344;-80
2023/05/20 12:10:33;;;;;;;16.77;9.07;;;;;;;;;;6214398;23;20007;-78
2023/05/20 12:12:58;;;;;;;14.45;9.07;;;;;;;;;;6213283;23;20016;-78
2023/05/20 12:15:24;;;;;;;16.33;8.48;;;;;;;;;;6187633;23;20383;-77
2023/05/20 12:17:51;;;;;;;16.42;8.95;;;;;;;;;;6188216;23;20088;-78
2023/05/20 12:20:18;;;;;;;16.85;8.88;;;;;;;;;;6163183;23;20376;-83
2023/05/20 12:22:44;;;;;;;13.32;8.27;;;;;;;;;;6188329;23;20014;-80
2023/05/20 12:25:17;;;;;;;13.98;8.88;;;;;;;;;;6213230;23;20080;-79
2023/05/20 12:27:46;;;;;;;18.23;8.70;;;;;;;;;;6188720;23;20000;-80
2023/05/20 12:30:14;;;;;;;12.75;8.60;;;;;;;;;;6164511;23;20012;-79
2023/05/20 12:32:40;;;;;;;13.68;8.77;;;;;;;;;;6188353;23;20004;-80
2023/05/20 12:35:06;;;;;;;15.60;8.82;;;;;;;;;;6214305;23;20004;-79
2023/05/20 12:37:31;;;;;;;17.65;8.57;;;;;;;;;;6212660;23;20008;-79
2023/05/20 12:39:57;;;;;;;16.02;8.50;;;;;;;;;;6214175;23;20004;-80
2023/05/20 12:42:22;;;;;;;16.23;9.27;;;;;;;;;;6212934;23;20005;-80
2023/05/20 12:44:48;;;;;;;15.48;8.68;;;;;;;;;;6187709;23;20008;-80
2023/05/20 12:47:13;;;;;;;16.17;8.25;;;;;;;;;;6212713;23;20000;-81
2023/05/20 12:49:39;;;;;;;16.08;9.30;;;;;;;;;;6214133;23;20424;-81
2023/05/20 12:52:06;;;;;;;14.93;8.38;;;;;;;;;;6212561;23;20087;-80
2023/05/20 12:54:32;;;;;;;15.55;8.38;;;;;;;;;;6212613;23;20095;-81
2023/05/20 12:56:57;;;;;;;16.48;8.90;;;;;;;;;;6212495;23;20344;-81
2023/05/20 12:59:23;;;;;;;22.65;9.60;;;;;;;;;;6186958;23;20016;-81
2023/05/20 13:01:48;;;;;;;12.82;8.38;;;;;;;;;;6187242;23;20017;-80
2023/05/20 13:04:14;;;;;;;15.75;8.63;;;;;;;;;;6214103;23;20030;-81
2023/05/20 13:06:39;;;;;;;16.52;8.70;;;;;;;;;;6213912;23;20023;-81
2023/05/20 13:09:05;;;;;;;13.75;8.80;;;;;;;;;;6187439;23;20008;-80
2023/05/20 13:11:30;;;;;;;16.83;8.38;;;;;;;;;;6187384;23;20356;-79
2023/05/20 13:13:56;;;;;;;15.95;8.98;;;;;;;;;;6211889;23;20004;-81
2023/05/20 13:16:22;;;;;;;13.25;8.57;;;;;;;;;;6187651;23;20339;-81
2023/05/20 13:18:48;;;;;;;16.65;8.57;;;;;;;;;;6212498;23;20004;-80
2023/05/20 13:21:13;;;;;;;14.70;7.95;;;;;;;;;;6212404;23;20079;-81
2023/05/20 13:23:40;;;;;;;15.90;8.35;;;;;;;;;;6187832;23;20009;-80
2023/05/20 13:26:05;;;;;;;15.48;7.90;;;;;;;;;;6212280;23;20047;-80
2023/05/20 13:28:31;;;;;;;12.35;8.13;;;;;;;;;;6211869;23;20009;-80
2023/05/20 13:30:56;;;;;;;14.93;8.27;;;;;;;;;;6213911;23;19996;-80
2023/05/20 13:33:22;;;;;;;12.30;8.00;;;;;;;;;;6212174;23;20005;-81
2023/05/20 13:35:48;;;;;;;14.25;8.40;;;;;;;;;;6213646;23;20498;-81
2023/05/20 13:38:14;;;;;;;10.60;8.10;;;;;;;;;;6212727;23;20091;-80
2023/05/20 13:40:39;;;;;;;13.90;8.13;;;;;;;;;;6212477;23;20344;-80
2023/05/20 13:43:05;;;;;;;12.77;7.70;;;;;;;;;;6211963;23;20009;-81
2023/05/20 13:45:30;;;;;;;16.90;8.25;;;;;;;;;;6212068;23;20313;-79
2023/05/20 13:47:56;;;;;;;10.13;7.10;;;;;;;;;;6212314;23;20005;-81
2023/05/20 13:50:21;;;;;;;12.50;7.90;;;;;;;;;;6187111;23;20051;-80
2023/05/20 13:52:47;;;;;;;12.55;7.90;;;;;;;;;;6212017;23;20340;-80
2023/05/20 13:55:12;;;;;;;18.20;8.77;;;;;;;;;;6213607;23;20001;-81
2023/05/20 13:57:37;;;;;;;13.77;7.95;;;;;;;;;;6186731;23;20215;-81
2023/05/20 14:00:03;;;;;;;13.60;8.73;;;;;;;;;;6187018;23;20058;-81
2023/05/20 14:02:30;;;;;;;21.33;9.05;;;;;;;;;;6187143;23;20019;-79
2023/05/20 14:04:55;;;;;;;13.82;8.52;;;;;;;;;;6187887;23;20008;-80
2023/05/20 14:07:21;;;;;;;12.23;7.72;;;;;;;;;;6213722;23;20395;-80
2023/05/20 14:09:46;;;;;;;16.60;8.57;;;;;;;;;;6212329;23;20004;-79
2023/05/20 14:12:11;;;;;;;14.18;8.23;;;;;;;;;;6211402;23;20000;-79
2023/05/20 14:14:37;;;;;;;17.63;7.95;;;;;;;;;;6211914;23;20001;-80
2023/05/20 14:17:02;;;;;;;12.98;8.18;;;;;;;;;;6186930;23;20001;-79
2023/05/20 14:19:28;;;;;;;12.30;8.05;;;;;;;;;;6212266;23;20059;-79